Arzew, Algeria

5:56 AM CET on September 24, 2017 (GMT +0100)
Oran | | Change Station

Elev 295 ft 35.63 °N, 0.60 °W | Updated 26 minutes ago

Partly Cloudy
Partly Cloudy
68 °F
Feels Like 68 °F
N
1
Wind Variable Wind from NNW

Today
High -- | Low -- °F
--% Chance of Precip.
Yesterday
High -- | Low -- °F
Precip. -- in
Pressure 30.09 in
Visibility 1.9 miles
Clouds Few 1000 ft
Scattered Clouds 23300 ft
Dew Point 66 °F
Humidity 94%
Rainfall 0.00 in
Snow Depth Not available.
6:50 AM 6:55 PM
Waxing Crescent, 16% visible
METAR DAOO 240430Z 33001KT 3000 BR FEW010 SCT233 20/19 Q1019
Pressure 30.09 in
Visibility 1.9 miles
Clouds Few 1000 ft
Scattered Clouds 23300 ft
Dew Point 66 °F
Humidity 94%
Rainfall 0.00 in
Snow Depth Not available.
6:50 AM 6:55 PM
Waxing Crescent, 16% visible
METAR DAOO 240430Z 33001KT 3000 BR FEW010 SCT233 20/19 Q1019

Get Severe Weather Alerts

Thanks for signing up!

Be on the lookout for a verification email in your inbox.

You'll start receiving the daily forecast at 6 AM.

×

10-Day Weather Forecast

No radar image for this location.
×

Almanac

Astronomy

Sep. 24, 2017 Rise Set
Actual Time
Civil Twilight
Nautical Twilight
Astronomical Twilight
Moon
Length of Visible Light
Length of Day
Tomorrow will be .
, % of the Moon is Illuminated

Today's Extremes

Country Highs Country Lows

Community

WunderPhotos

Category 6

Welcome to Category 6. This is the collective home for Weather Underground's featured writeups by Dr. Jeff Masters (right), Bob Henson (left), Chris Burt, and other regular contributors.

Nearby

Air Quality

  Air Quality AQ Index Pollutant
Not available.

Snow Depth

Station Depth Elevation

Earthquake Activity

City Distance Mag. Time & Date
Minimum magnitude displayed is 2.5.

Coastal Water Temperatures

Place Temperature

Stations

Nearby Weather Stations

Station Location Temp. Windchill Dew Point Humidity Wind Precip. Elev Updated Type